GCRR Airport Information

Runway Information
Runway 03 Length 7874 ft width 148 ft
Elevation 18 ft Threshold ft Heading 27
Runway 21 Length 7874 ft Width 148 ft
Elevation 47 ft Threshold ft Heading 207
Airport Frequencies
Type APP Name CANARIAS A Frequency 129.3 MHZ
Type ATIS Name ATIS Frequency 118.625 MHZ
Type GND Name GND Frequency 121.8 MHZ
Type TWR Name TWR Frequency 120.7 MHZ
Airport Navaids
Type VOR-DME Name Lanzarote Frequency 113700 KHZ
Type NDB Name Lanzarote Frequency 310 KHZ
Type VOR-DME Name Lanzarote Frequency 115200 KHZ
Type TACAN Name Lanzarote Frequency 114700 KHZ
Airport Weather Information & NOTAM
ADDS - METARS form results

(2106 UTC 05 July 2022)
Data provider http://aviationweather.gov/metar/data/
 
METAR text: GCRR 052100Z 02014KT 340V050 9999 FEW020 22/16 Q1020
Conditions at: GCRR (ARRECIFE/LANZARO, ES) observed 2100 UTC 05 July 2022
Temperature: 22.0°C (72°F)
Dewpoint: 16.0°C (61°F) [RH = 69%]
Pressure (altimeter): 30.12 inches Hg (1020.0 mb)
Winds: from the NNE (20 degrees) at 16 MPH (14 knots; 7.2 m/s)
Visibility: 6 or more miles (10+ km)
Ceiling: at least 12,000 feet AGL
Clouds: few clouds at 2000 feet AGL
Weather: no significant weather observed at this time

METAR text: GCRR 052030Z 02015KT 9999 FEW020 22/16 Q1020
Conditions at: GCRR (ARRECIFE/LANZARO, ES) observed 2030 UTC 05 July 2022
Temperature: 22.0°C (72°F)
Dewpoint: 16.0°C (61°F) [RH = 69%]
Pressure (altimeter): 30.12 inches Hg (1020.0 mb)
Winds: from the NNE (20 degrees) at 17 MPH (15 knots; 7.7 m/s)
Visibility: 6 or more miles (10+ km)
Ceiling: at least 12,000 feet AGL
Clouds: few clouds at 2000 feet AGL
Weather: no significant weather observed at this time

Forecast for: GCRR (ARRECIFE/LANZARO, ES)
Text: TAF GCRR 052000Z 0521/0621 02014KT 9999 FEW020 TX28/0614Z TN20/0606Z
Forecast period: 2100 UTC 05 July 2022 to 2100 UTC 06 July 2022
Forecast type: FROM: standard forecast or significant change
Winds: from the NNE (20 degrees) at 16 MPH (14 knots; 7.2 m/s)
Visibility: 6 or more miles (10+ km)
Ceiling: at least 12,000 feet AGL
Clouds: few clouds at 2000 feet AGL
Weather: no significant weather forecast for this period
Text: PROB30
Forecast period: 0900 to 2100 UTC 06 July 2022
Forecast type: TEMPORARY: The following changes expected for less than half the time period
Winds: from the NNE (20 degrees) at 22 MPH (19 knots; 9.8 m/s)
gusting to 33 MPH (29 knots; 14.9 m/s)
Visibility: missing
Ceiling: unknown
Clouds: missing
Weather: no significant weather forecast for this period